Time;durP1;ratioP1;P1;durP2;ratioP2;P2;SDS_P1;SDS_P2;PMS_P1;PMS_P2;Temp;Humidity;BMP_temperature;BMP_pressure;BME280_temperature;BME280_humidity;BME280_pressure;Samples;Min_cycle;Max_cycle;Signal;HPM_P1;HPM_P2
2021/06/18 00:01:12;;;;;;;34.67;31.23;;;21.20;99.90;;;;;;5026249;28;20076;-52
2021/06/18 00:03:41;;;;;;;36.92;33.70;;;21.10;99.90;;;;;;5024244;28;20073;-47
2021/06/18 00:06:07;;;;;;;34.78;31.63;;;21.10;99.90;;;;;;5019837;28;20140;-55
2021/06/18 00:08:35;;;;;;;35.75;32.55;;;20.90;99.90;;;;;;5024013;28;20048;-45
2021/06/18 00:11:02;;;;;;;34.78;31.63;;;20.90;99.90;;;;;;5023406;28;20777;-58
2021/06/18 00:13:31;;;;;;;35.03;31.45;;;20.90;99.90;;;;;;5006623;28;20053;-54
2021/06/18 00:16:00;;;;;;;33.72;30.70;;;20.80;99.90;;;;;;5026167;28;20056;-53
2021/06/18 00:18:29;;;;;;;36.92;33.58;;;20.80;99.90;;;;;;5026913;28;20053;-49
2021/06/18 00:20:55;;;;;;;36.80;33.40;;;20.80;99.90;;;;;;5008932;28;20375;-52
2021/06/18 00:23:21;;;;;;;36.20;32.70;;;20.80;99.90;;;;;;5008966;28;20045;-50
2021/06/18 00:25:54;;;;;;;35.50;32.13;;;20.70;99.90;;;;;;5023700;28;20140;-50
2021/06/18 00:28:22;;;;;;;36.05;32.85;;;20.60;99.90;;;;;;5024992;28;20088;-55
2021/06/18 00:30:48;;;;;;;34.95;31.85;;;20.60;99.90;;;;;;5025282;28;20052;-49
2021/06/18 00:33:15;;;;;;;36.83;33.58;;;20.60;99.90;;;;;;5026074;28;20049;-49
2021/06/18 00:35:41;;;;;;;37.63;34.17;;;20.60;99.90;;;;;;5015656;28;20574;-51
2021/06/18 00:38:09;;;;;;;37.15;33.72;;;20.50;99.90;;;;;;5014347;28;20100;-58
2021/06/18 00:40:38;;;;;;;37.00;33.65;;;20.50;99.90;;;;;;5028909;28;20045;-45
2021/06/18 00:43:04;;;;;;;37.42;34.15;;;20.50;99.90;;;;;;5029421;28;20787;-49
2021/06/18 00:45:30;;;;;;;37.05;33.70;;;20.40;99.90;;;;;;5028906;28;20446;-46
2021/06/18 00:47:59;;;;;;;37.50;34.17;;;20.40;99.90;;;;;;5011264;28;20049;-49
2021/06/18 00:50:29;;;;;;;38.67;35.22;;;20.30;99.90;;;;;;5025765;28;20474;-49
2021/06/18 00:52:56;;;;;;;40.85;37.17;;;20.30;99.90;;;;;;5027856;28;20050;-46
2021/06/18 00:55:22;;;;;;;38.35;35.05;;;20.20;99.90;;;;;;5029257;28;20053;-54
2021/06/18 00:57:50;;;;;;;41.10;37.10;;;20.30;99.90;;;;;;5029887;28;20072;-52
2021/06/18 01:00:20;;;;;;;38.53;35.17;;;20.20;99.90;;;;;;5018173;28;20132;-48
2021/06/18 01:02:48;;;;;;;40.45;36.75;;;20.20;99.90;;;;;;5010980;28;20140;-50
2021/06/18 01:05:16;;;;;;;40.80;37.30;;;20.30;99.90;;;;;;5017748;28;20072;-55
2021/06/18 01:07:54;;;;;;;43.05;38.97;;;20.20;99.90;;;;;;5020893;28;20049;-51
2021/06/18 01:10:47;;;;;;;40.88;37.22;;;20.10;99.90;;;;;;5009604;28;20046;-51
2021/06/18 01:13:40;;;;;;;41.83;38.13;;;20.10;99.90;;;;;;5011832;28;20041;-52
2021/06/18 01:16:18;;;;;;;44.60;40.60;;;20.00;99.90;;;;;;5008387;28;20042;-50
2021/06/18 01:19:11;;;;;;;43.95;40.15;;;20.00;99.90;;;;;;5010446;28;20049;-51
2021/06/18 01:21:56;;;;;;;45.30;41.25;;;19.90;99.90;;;;;;5008030;28;20046;-50
2021/06/18 01:25:03;;;;;;;43.95;39.72;;;20.00;99.90;;;;;;5022032;28;20040;-47
2021/06/18 01:27:42;;;;;;;45.97;41.75;;;19.90;99.90;;;;;;5029388;28;20055;-50
2021/06/18 01:30:17;;;;;;;45.13;40.92;;;19.90;99.90;;;;;;5023300;28;20050;-51
2021/06/18 01:32:49;;;;;;;48.67;44.33;;;19.90;99.90;;;;;;5009004;28;20553;-46
2021/06/18 01:35:18;;;;;;;47.53;43.40;;;19.90;99.90;;;;;;5010661;28;20481;-49
2021/06/18 01:37:51;;;;;;;48.35;44.28;;;19.90;99.90;;;;;;5009561;28;20057;-52
2021/06/18 01:40:20;;;;;;;46.30;42.30;;;19.80;99.90;;;;;;5021432;28;20072;-46
2021/06/18 01:42:48;;;;;;;49.17;44.65;;;19.80;99.90;;;;;;5028640;28;20056;-53
2021/06/18 01:45:18;;;;;;;43.95;40.05;;;19.70;99.90;;;;;;5028674;28;20053;-55
2021/06/18 01:47:49;;;;;;;48.75;44.00;;;19.80;99.90;;;;;;5033915;28;20041;-50
2021/06/18 01:50:18;;;;;;;48.92;44.45;;;19.70;99.90;;;;;;5023195;28;20478;-50
2021/06/18 01:52:51;;;;;;;48.88;44.53;;;19.70;99.90;;;;;;5009429;28;20076;-55
2021/06/18 01:55:24;;;;;;;51.65;46.50;;;19.70;99.90;;;;;;5009781;28;20506;-46
2021/06/18 01:57:58;;;;;;;50.33;45.42;;;19.70;99.90;;;;;;5008761;28;20079;-55
2021/06/18 02:00:48;;;;;;;49.85;45.53;;;19.70;99.90;;;;;;5011889;28;20045;-51
2021/06/18 02:03:20;;;;;;;47.55;43.30;;;19.70;99.90;;;;;;5013543;28;20049;-51
2021/06/18 02:05:47;;;;;;;50.85;45.97;;;19.60;99.90;;;;;;5017174;28;20099;-49
2021/06/18 02:08:14;;;;;;;51.53;47.00;;;19.70;99.90;;;;;;5008804;28;20045;-46
2021/06/18 02:10:46;;;;;;;49.30;45.08;;;19.70;99.90;;;;;;5010136;28;20049;-50
2021/06/18 02:13:20;;;;;;;51.15;46.33;;;19.70;99.90;;;;;;5028515;28;20047;-50
2021/06/18 02:15:48;;;;;;;52.33;47.63;;;19.70;99.90;;;;;;5029440;28;20099;-50
2021/06/18 02:18:25;;;;;;;53.75;48.47;;;19.60;99.90;;;;;;5034429;28;20064;-51
2021/06/18 02:20:54;;;;;;;53.47;48.67;;;19.60;99.90;;;;;;5027880;28;20485;-50
2021/06/18 02:23:23;;;;;;;53.42;48.45;;;19.50;99.90;;;;;;5011480;28;20046;-50
2021/06/18 02:26:02;;;;;;;55.22;50.33;;;19.50;99.90;;;;;;5009722;28;20053;-51
2021/06/18 02:28:30;;;;;;;58.17;52.83;;;19.40;99.90;;;;;;5008727;28;20622;-49
2021/06/18 02:30:57;;;;;;;55.22;50.15;;;19.30;99.90;;;;;;5011829;28;20524;-52
2021/06/18 02:33:25;;;;;;;58.38;52.83;;;19.30;99.90;;;;;;5019238;28;20045;-48
2021/06/18 02:35:51;;;;;;;59.08;53.53;;;19.30;99.90;;;;;;5033665;28;20508;-50
2021/06/18 02:38:20;;;;;;;61.28;55.40;;;19.30;99.90;;;;;;5018902;28;20489;-57
2021/06/18 02:40:47;;;;;;;57.70;52.47;;;19.30;99.90;;;;;;5028776;28;20038;-52
2021/06/18 02:43:16;;;;;;;59.22;53.67;;;19.30;99.90;;;;;;5023467;28;20196;-47
2021/06/18 02:45:42;;;;;;;59.00;53.47;;;19.30;99.90;;;;;;5021581;28;20389;-52
2021/06/18 02:48:29;;;;;;;60.60;55.22;;;19.30;99.90;;;;;;5007985;28;20602;-57
2021/06/18 02:51:24;;;;;;;62.08;56.08;;;19.30;99.90;;;;;;5008270;28;20132;-50
2021/06/18 02:53:55;;;;;;;60.78;54.42;;;19.20;99.90;;;;;;5012851;28;20045;-48
2021/06/18 02:56:44;;;;;;;61.05;55.25;;;19.30;99.90;;;;;;5025860;28;20041;-48
2021/06/18 02:59:35;;;;;;;60.80;55.00;;;19.30;99.90;;;;;;5026901;28;20049;-50
2021/06/18 03:02:03;;;;;;;59.42;54.03;;;19.30;99.90;;;;;;5026125;28;20045;-57
2021/06/18 03:04:32;;;;;;;61.00;55.60;;;19.30;99.90;;;;;;5022594;28;20049;-52
2021/06/18 03:07:07;;;;;;;63.03;56.58;;;19.20;99.90;;;;;;5008985;28;20042;-48
2021/06/18 03:09:43;;;;;;;61.50;56.17;;;19.20;99.90;;;;;;5010770;28;20138;-48
2021/06/18 03:12:12;;;;;;;64.10;58.10;;;19.10;99.90;;;;;;5026418;28;20053;-53
2021/06/18 03:14:44;;;;;;;62.47;56.58;;;19.10;99.90;;;;;;5029040;28;20560;-49
2021/06/18 03:17:18;;;;;;;61.95;55.97;;;19.10;99.90;;;;;;5013816;28;20045;-50
2021/06/18 03:19:57;;;;;;;64.55;58.30;;;19.00;99.90;;;;;;5019965;28;20068;-52
2021/06/18 03:22:24;;;;;;;65.80;59.72;;;19.00;99.90;;;;;;5006737;28;20053;-48
2021/06/18 03:24:54;;;;;;;67.57;61.10;;;18.90;99.90;;;;;;5014608;28;20068;-50
2021/06/18 03:27:25;;;;;;;67.45;61.35;;;18.90;99.90;;;;;;5008684;28;20053;-44
2021/06/18 03:29:54;;;;;;;64.20;58.08;;;18.90;99.90;;;;;;5005859;28;20041;-51
2021/06/18 03:32:23;;;;;;;65.82;59.60;;;19.00;99.90;;;;;;5005314;28;20046;-47
2021/06/18 03:34:52;;;;;;;68.00;61.58;;;18.90;99.90;;;;;;5007347;28;20042;-51
2021/06/18 03:37:20;;;;;;;69.20;62.42;;;19.00;99.90;;;;;;5019434;28;20057;-48
2021/06/18 03:39:49;;;;;;;69.70;62.90;;;19.00;99.90;;;;;;5025881;28;20445;-54
2021/06/18 03:42:19;;;;;;;67.05;61.03;;;19.00;99.90;;;;;;5025843;28;20189;-55
2021/06/18 03:44:50;;;;;;;68.03;61.65;;;19.00;99.90;;;;;;5026547;28;20132;-50
2021/06/18 03:47:17;;;;;;;67.95;61.65;;;19.00;99.90;;;;;;5026264;28;20515;-48
2021/06/18 03:49:47;;;;;;;68.90;62.20;;;19.00;99.90;;;;;;5010747;28;20041;-49
2021/06/18 03:52:18;;;;;;;68.80;62.55;;;19.00;99.90;;;;;;5025131;28;20083;-45
2021/06/18 03:54:44;;;;;;;69.68;63.33;;;19.10;99.90;;;;;;5025210;28;20153;-45
2021/06/18 03:57:14;;;;;;;66.95;60.63;;;19.10;99.90;;;;;;5025522;28;20100;-52
2021/06/18 03:59:41;;;;;;;68.68;62.33;;;19.20;99.90;;;;;;5005453;28;20061;-51
2021/06/18 04:02:15;;;;;;;66.22;60.20;;;19.30;99.90;;;;;;5012411;28;20417;-52
2021/06/18 04:04:49;;;;;;;65.65;59.40;;;19.30;99.90;;;;;;5008492;28;20046;-50
2021/06/18 04:07:15;;;;;;;63.60;57.55;;;19.40;99.90;;;;;;5005696;28;20156;-49
2021/06/18 04:09:42;;;;;;;66.75;60.60;;;19.40;99.90;;;;;;5021119;28;20045;-48
2021/06/18 04:12:10;;;;;;;65.53;59.53;;;19.40;99.90;;;;;;5023788;28;20052;-50
2021/06/18 04:14:37;;;;;;;65.03;58.95;;;19.50;99.90;;;;;;5023032;28;20129;-52
2021/06/18 04:17:11;;;;;;;56.55;51.15;;;19.60;99.90;;;;;;5026009;28;20049;-52
2021/06/18 04:19:41;;;;;;;63.15;57.15;;;19.70;99.90;;;;;;5017671;28;20045;-53
2021/06/18 04:22:11;;;;;;;57.22;52.13;;;19.90;99.90;;;;;;5015032;28;20140;-55
2021/06/18 04:24:37;;;;;;;64.38;58.33;;;19.90;99.90;;;;;;5024989;28;20127;-55
2021/06/18 04:27:04;;;;;;;61.35;55.38;;;20.00;99.90;;;;;;5024685;28;20048;-53
2021/06/18 04:29:30;;;;;;;62.00;56.22;;;20.10;99.90;;;;;;5023967;28;20057;-52
2021/06/18 04:31:56;;;;;;;62.10;56.20;;;20.00;99.90;;;;;;5007430;28;20038;-53
2021/06/18 04:34:28;;;;;;;59.17;53.78;;;20.10;99.90;;;;;;5006201;28;20049;-56
2021/06/18 04:36:57;;;;;;;;;;;20.10;99.90;;;;;;5006814;28;20042;-53
2021/06/18 04:39:26;;;;;;;59.13;53.83;;;20.10;99.90;;;;;;5005940;28;20658;-54
2021/06/18 04:41:52;;;;;;;62.90;56.80;;;20.20;99.90;;;;;;5020875;28;20060;-57
2021/06/18 04:44:18;;;;;;;61.85;55.85;;;20.20;99.90;;;;;;5025261;28;20168;-57
2021/06/18 04:46:46;;;;;;;57.63;52.22;;;20.20;99.90;;;;;;5025647;28;20053;-50
2021/06/18 04:49:12;;;;;;;59.28;53.65;;;20.30;99.90;;;;;;5023976;28;20080;-50
2021/06/18 04:51:39;;;;;;;56.15;51.00;;;20.40;99.90;;;;;;5014564;28;20054;-57
2021/06/18 04:54:06;;;;;;;60.45;54.60;;;20.50;99.90;;;;;;5005727;28;20042;-56
2021/06/18 04:56:33;;;;;;;59.78;54.38;;;20.50;99.90;;;;;;5018484;28;20065;-53
2021/06/18 04:58:59;;;;;;;58.03;52.72;;;20.60;99.90;;;;;;5025152;28;20136;-56
2021/06/18 05:01:26;;;;;;;59.00;53.30;;;20.70;99.90;;;;;;5021348;28;20489;-56
2021/06/18 05:04:05;;;;;;;56.03;51.08;;;20.80;99.90;;;;;;5004420;28;20053;-56
2021/06/18 05:06:32;;;;;;;53.17;48.53;;;20.80;99.90;;;;;;5006557;28;20096;-57
2021/06/18 05:09:00;;;;;;;55.97;50.92;;;20.90;99.90;;;;;;5006764;28;20050;-55
2021/06/18 05:11:26;;;;;;;56.53;51.28;;;20.90;99.90;;;;;;5023288;28;20115;-55
2021/06/18 05:13:52;;;;;;;53.80;48.85;;;21.00;99.90;;;;;;5014880;28;20520;-52
2021/06/18 05:16:19;;;;;;;53.28;48.55;;;21.00;99.90;;;;;;5010167;28;20467;-54
2021/06/18 05:18:45;;;;;;;52.67;47.67;;;21.10;99.90;;;;;;5005145;28;20050;-55
2021/06/18 05:21:12;;;;;;;52.20;47.40;;;21.10;99.90;;;;;;5021116;28;20833;-57
2021/06/18 05:23:39;;;;;;;51.88;47.10;;;21.10;99.90;;;;;;5014819;28;20750;-54
2021/06/18 05:26:08;;;;;;;51.13;46.42;;;21.10;99.90;;;;;;5027412;28;20042;-55
2021/06/18 05:28:35;;;;;;;50.78;46.08;;;21.10;99.90;;;;;;5008794;28;20054;-54
2021/06/18 05:31:04;;;;;;;50.13;45.50;;;21.10;99.90;;;;;;5011831;28;20050;-52
2021/06/18 05:33:32;;;;;;;50.25;45.58;;;21.20;99.90;;;;;;5021218;28;20053;-57
2021/06/18 05:36:02;;;;;;;47.00;42.75;;;21.30;99.90;;;;;;5017162;28;20077;-55
2021/06/18 05:38:28;;;;;;;76.30;69.35;;;21.20;99.90;;;;;;5021313;28;20072;-55
2021/06/18 05:40:59;;;;;;;77.28;69.95;;;21.40;99.90;;;;;;5026412;28;20131;-55
2021/06/18 05:43:28;;;;;;;53.42;48.50;;;21.30;99.90;;;;;;5027144;28;20045;-55
2021/06/18 05:45:56;;;;;;;49.15;44.90;;;21.30;99.90;;;;;;5031698;28;20048;-54
2021/06/18 05:48:25;;;;;;;49.13;44.83;;;21.10;99.90;;;;;;5029200;28;20095;-57
2021/06/18 05:50:51;;;;;;;49.25;44.83;;;21.00;99.90;;;;;;5026484;28;20980;-54
2021/06/18 05:53:22;;;;;;;48.67;44.22;;;21.10;99.90;;;;;;4991551;28;20049;-57
2021/06/18 05:55:50;;;;;;;47.22;43.38;;;21.50;99.90;;;;;;5048719;28;20053;-56
2021/06/18 05:58:19;;;;;;;48.72;44.38;;;21.40;99.90;;;;;;5048568;28;20504;-54
2021/06/18 06:00:46;;;;;;;44.80;40.90;;;21.30;99.90;;;;;;5049573;28;20080;-57
2021/06/18 06:03:16;;;;;;;45.15;41.22;;;21.40;99.90;;;;;;5039721;28;20477;-56
2021/06/18 06:05:46;;;;;;;42.78;38.67;;;21.40;99.90;;;;;;5029234;28;20461;-56
2021/06/18 06:08:15;;;;;;;44.40;40.22;;;21.30;99.90;;;;;;5031157;28;20087;-56
2021/06/18 06:10:44;;;;;;;41.67;38.05;;;21.40;99.90;;;;;;5044236;28;20048;-56
2021/06/18 06:13:10;;;;;;;43.45;39.35;;;21.40;99.90;;;;;;5033009;28;20152;-55
2021/06/18 06:15:39;;;;;;;41.55;37.65;;;21.40;99.90;;;;;;5039860;28;20818;-56
2021/06/18 06:18:08;;;;;;;41.42;37.80;;;21.40;99.90;;;;;;5028039;28;20056;-56
2021/06/18 06:20:36;;;;;;;40.85;37.15;;;22.00;99.90;;;;;;5039631;28;20065;-54
2021/06/18 06:23:03;;;;;;;40.97;37.22;;;22.60;99.90;;;;;;5050311;28;20048;-49
2021/06/18 06:25:30;;;;;;;45.00;40.78;;;23.10;99.90;;;;;;5048713;28;20540;-52
2021/06/18 06:27:56;;;;;;;38.60;35.13;;;23.30;99.90;;;;;;5049009;28;20048;-55
2021/06/18 06:30:22;;;;;;;46.35;42.17;;;23.50;99.00;;;;;;5039170;28;20567;-55
2021/06/18 06:32:48;;;;;;;41.00;37.13;;;23.50;98.50;;;;;;5045634;28;20041;-54
2021/06/18 06:35:17;;;;;;;41.22;37.55;;;23.60;99.40;;;;;;5035881;28;20363;-54
2021/06/18 06:37:44;;;;;;;36.50;33.30;;;23.90;98.70;;;;;;5031865;28;20141;-54
2021/06/18 06:40:16;;;;;;;34.95;31.85;;;24.00;97.70;;;;;;5049756;28;20110;-49
2021/06/18 06:42:42;;;;;;;33.05;29.95;;;24.10;97.90;;;;;;5045609;28;20057;-52
2021/06/18 06:45:11;;;;;;;32.55;29.75;;;24.60;97.20;;;;;;5062521;28;20052;-56
2021/06/18 06:47:42;;;;;;;40.72;36.90;;;25.00;95.40;;;;;;5049817;28;20041;-53
2021/06/18 06:50:10;;;;;;;31.52;28.98;;;25.30;95.70;;;;;;5044171;28;20070;-56
2021/06/18 06:52:38;;;;;;;31.30;28.27;;;25.60;94.60;;;;;;5048620;28;20174;-55
2021/06/18 06:55:08;;;;;;;45.65;41.72;;;25.70;93.50;;;;;;5043234;28;20485;-59
2021/06/18 06:57:34;;;;;;;34.90;32.00;;;26.00;93.30;;;;;;5043456;28;20048;-54
2021/06/18 07:00:03;;;;;;;34.33;31.52;;;26.10;93.50;;;;;;5046646;28;20083;-55
2021/06/18 07:02:30;;;;;;;36.00;32.72;;;26.30;93.00;;;;;;5047814;28;20087;-55
2021/06/18 07:04:56;;;;;;;31.67;29.00;;;26.30;92.20;;;;;;5047275;28;20040;-57
2021/06/18 07:07:25;;;;;;;34.30;31.35;;;26.10;92.00;;;;;;5043901;28;20037;-55
2021/06/18 07:09:51;;;;;;;33.25;30.15;;;25.90;92.20;;;;;;5046985;28;20045;-56
2021/06/18 07:12:20;;;;;;;36.55;33.30;;;25.50;92.00;;;;;;5045451;28;20048;-58
2021/06/18 07:14:48;;;;;;;37.05;33.67;;;25.40;92.70;;;;;;5044512;28;20106;-55
2021/06/18 07:17:14;;;;;;;32.38;29.35;;;25.20;92.70;;;;;;5047028;28;20131;-55
2021/06/18 07:19:40;;;;;;;31.92;29.30;;;25.10;92.80;;;;;;5043758;28;20167;-57
2021/06/18 07:22:07;;;;;;;30.20;27.63;;;25.20;93.10;;;;;;5045841;28;20041;-56
2021/06/18 07:24:34;;;;;;;32.30;29.60;;;25.10;93.40;;;;;;5033467;28;20053;-57
2021/06/18 07:27:01;;;;;;;31.08;28.33;;;25.10;92.90;;;;;;5045759;28;20055;-52
2021/06/18 07:29:29;;;;;;;33.85;30.95;;;25.00;93.30;;;;;;5041984;28;20044;-52
2021/06/18 07:31:57;;;;;;;31.98;29.17;;;25.00;93.40;;;;;;5046064;28;20045;-58
2021/06/18 07:34:23;;;;;;;39.17;35.92;;;25.40;93.20;;;;;;5044944;28;20047;-57
2021/06/18 07:36:49;;;;;;;55.33;50.47;;;25.80;92.90;;;;;;5044737;28;20218;-51
2021/06/18 07:39:16;;;;;;;47.00;42.75;;;26.00;92.60;;;;;;5036193;28;20061;-57
2021/06/18 07:41:45;;;;;;;47.58;43.58;;;26.10;92.20;;;;;;5033402;28;20045;-54
2021/06/18 07:44:11;;;;;;;30.30;27.95;;;26.10;91.70;;;;;;5035405;28;20047;-56
2021/06/18 07:46:38;;;;;;;28.65;26.17;;;25.90;91.70;;;;;;5032405;28;20175;-55
2021/06/18 07:49:06;;;;;;;31.50;29.00;;;25.70;91.60;;;;;;5045166;28;20051;-54
2021/06/18 07:51:35;;;;;;;38.20;34.75;;;25.60;92.40;;;;;;5043328;28;20037;-54
2021/06/18 07:54:03;;;;;;;43.05;39.25;;;25.70;92.40;;;;;;5047218;28;20045;-57
2021/06/18 07:56:40;;;;;;;30.48;27.98;;;25.60;92.50;;;;;;5046127;28;20050;-55
2021/06/18 07:59:09;;;;;;;29.02;26.77;;;25.50;92.50;;;;;;5044752;28;20099;-55
2021/06/18 08:01:39;;;;;;;31.55;29.15;;;25.40;92.80;;;;;;5039571;28;20638;-56
2021/06/18 08:04:05;;;;;;;30.33;27.67;;;25.30;92.60;;;;;;5039072;28;20056;-52
2021/06/18 08:06:31;;;;;;;106.65;97.43;;;25.30;93.00;;;;;;5046342;28;20126;-57
2021/06/18 08:08:57;;;;;;;31.25;28.63;;;25.30;92.70;;;;;;5039927;28;20056;-54
2021/06/18 08:11:28;;;;;;;30.55;28.05;;;25.40;92.60;;;;;;5037082;28;20069;-57
2021/06/18 08:13:57;;;;;;;30.23;27.60;;;25.40;92.60;;;;;;5041389;28;20555;-55
2021/06/18 08:16:23;;;;;;;32.80;30.13;;;25.30;92.80;;;;;;5043813;28;20380;-57
2021/06/18 08:18:50;;;;;;;47.90;43.85;;;25.20;93.10;;;;;;5045411;28;20048;-56
2021/06/18 08:21:16;;;;;;;36.53;33.42;;;25.40;93.00;;;;;;5044579;28;20107;-57
2021/06/18 08:23:44;;;;;;;29.13;26.60;;;25.40;93.00;;;;;;5044460;28;20620;-56
2021/06/18 08:26:11;;;;;;;29.48;27.00;;;25.50;93.00;;;;;;5041124;28;20077;-54
2021/06/18 08:28:38;;;;;;;31.38;28.63;;;25.80;92.90;;;;;;5041501;28;20049;-52
2021/06/18 08:31:05;;;;;;;27.90;25.60;;;25.90;92.40;;;;;;5038624;28;20044;-54
2021/06/18 08:33:36;;;;;;;29.65;27.25;;;26.10;92.50;;;;;;5039372;28;20049;-56
2021/06/18 08:36:04;;;;;;;25.98;23.85;;;26.20;91.90;;;;;;5038557;28;20040;-53
2021/06/18 08:38:34;;;;;;;27.42;25.13;;;26.40;92.10;;;;;;5037736;28;20072;-53
2021/06/18 08:41:08;;;;;;;;;;;26.40;91.60;;;;;;5037613;28;20052;-53
2021/06/18 08:43:35;;;;;;;25.63;23.63;;;26.70;91.30;;;;;;5041387;28;19962;-53
2021/06/18 08:46:02;;;;;;;21.90;20.02;;;26.80;91.00;;;;;;5039894;28;20065;-56
2021/06/18 08:48:33;;;;;;;23.17;21.10;;;26.80;90.70;;;;;;5044423;28;20405;-53
2021/06/18 08:51:01;;;;;;;29.30;26.75;;;26.70;90.00;;;;;;5044594;28;20053;-56
2021/06/18 08:53:32;;;;;;;26.48;24.20;;;26.70;90.00;;;;;;5045227;28;20781;-54
2021/06/18 08:55:59;;;;;;;19.08;17.48;;;27.00;89.30;;;;;;5045051;28;20049;-55
2021/06/18 08:58:25;;;;;;;19.10;17.52;;;27.00;89.70;;;;;;5043026;28;20041;-52
2021/06/18 09:00:51;;;;;;;18.67;17.15;;;27.10;90.10;;;;;;5048727;28;20057;-53
2021/06/18 09:03:36;;;;;;;19.48;17.60;;;27.00;89.70;;;;;;5050269;28;20037;-54
2021/06/18 09:06:24;;;;;;;15.43;14.13;;;27.20;89.20;;;;;;5046123;28;20045;-58
2021/06/18 09:09:21;;;;;;;23.38;21.23;;;27.30;88.10;;;;;;5046351;28;20050;-52
2021/06/18 09:11:59;;;;;;;17.65;16.08;;;27.50;86.70;;;;;;5041157;28;20045;-54
2021/06/18 09:14:38;;;;;;;15.75;14.25;;;27.80;86.60;;;;;;5052225;28;20492;-55
2021/06/18 09:17:12;;;;;;;14.00;12.70;;;28.50;80.50;;;;;;5049296;28;20145;-56
2021/06/18 09:19:52;;;;;;;17.88;16.20;;;29.20;80.70;;;;;;5049737;28;20041;-55
2021/06/18 09:22:24;;;;;;;13.70;12.40;;;29.80;76.20;;;;;;5050241;28;20041;-56
2021/06/18 09:25:09;;;;;;;16.02;14.52;;;30.40;73.00;;;;;;5048492;28;20053;-53
2021/06/18 09:27:49;;;;;;;12.85;11.52;;;30.20;72.50;;;;;;5045478;28;20053;-56
2021/06/18 09:30:31;;;;;;;18.95;17.30;;;30.50;73.20;;;;;;5052814;28;20041;-57
2021/06/18 09:33:12;;;;;;;11.57;10.38;;;30.40;69.70;;;;;;5030762;28;20384;-56
2021/06/18 09:36:08;;;;;;;16.83;15.18;;;30.30;71.10;;;;;;5048609;28;20076;-54
2021/06/18 09:38:53;;;;;;;9.70;8.30;;;29.90;68.90;;;;;;5047268;28;20139;-54
2021/06/18 09:41:33;;;;;;;16.08;14.40;;;29.20;69.70;;;;;;5047713;28;20083;-54
2021/06/18 09:44:17;;;;;;;11.73;10.73;;;28.70;71.90;;;;;;5046308;28;20400;-55
2021/06/18 09:46:44;;;;;;;11.77;10.60;;;28.60;71.80;;;;;;5048067;28;20041;-55
2021/06/18 09:49:36;;;;;;;8.35;6.70;;;28.20;73.40;;;;;;5049774;28;20048;-55
2021/06/18 09:52:15;;;;;;;9.40;7.65;;;28.10;73.80;;;;;;5047618;28;20485;-56
2021/06/18 09:54:49;;;;;;;12.85;11.65;;;27.90;75.60;;;;;;5047417;28;20037;-53
2021/06/18 09:57:22;;;;;;;15.05;13.20;;;27.60;76.80;;;;;;5048382;28;20485;-53
2021/06/18 09:59:52;;;;;;;12.65;11.45;;;27.60;77.60;;;;;;5043791;28;20071;-55
2021/06/18 10:02:20;;;;;;;25.85;23.45;;;27.70;79.00;;;;;;5048192;28;20063;-55
2021/06/18 10:04:51;;;;;;;19.70;17.77;;;27.70;79.50;;;;;;5044909;28;20044;-52
2021/06/18 10:07:21;;;;;;;13.75;11.15;;;28.00;79.00;;;;;;5047704;28;20504;-55
2021/06/18 10:09:48;;;;;;;11.65;7.78;;;28.30;77.90;;;;;;5053873;28;20556;-54
2021/06/18 10:12:14;;;;;;;7.70;6.95;;;28.20;76.40;;;;;;5050797;28;20608;-57
2021/06/18 10:14:42;;;;;;;7.20;6.50;;;28.30;75.80;;;;;;5044192;28;20501;-53
2021/06/18 10:17:08;;;;;;;11.18;9.80;;;28.30;75.70;;;;;;5048945;28;20049;-55
2021/06/18 10:19:34;;;;;;;8.85;7.95;;;28.20;75.90;;;;;;5049247;28;20056;-54
2021/06/18 10:22:14;;;;;;;15.85;14.35;;;28.10;75.50;;;;;;5048426;28;20393;-57
2021/06/18 10:25:03;;;;;;;8.60;7.80;;;28.30;76.00;;;;;;5053746;28;20045;-53
2021/06/18 10:27:40;;;;;;;13.13;11.90;;;28.20;76.00;;;;;;5038850;28;20064;-56
2021/06/18 10:30:29;;;;;;;9.52;7.22;;;28.30;77.30;;;;;;5036827;28;20132;-53
2021/06/18 10:32:58;;;;;;;14.68;13.30;;;28.30;76.70;;;;;;5028448;28;20057;-53
2021/06/18 10:35:46;;;;;;;6.93;6.10;;;28.30;76.30;;;;;;5037830;28;20095;-53
2021/06/18 10:38:27;;;;;;;8.10;6.75;;;28.30;74.90;;;;;;5048841;28;20163;-54
2021/06/18 10:40:55;;;;;;;6.82;6.13;;;28.00;75.50;;;;;;5038180;28;20045;-54
2021/06/18 10:43:31;;;;;;;11.27;10.23;;;28.00;76.30;;;;;;5030347;28;20093;-54
2021/06/18 10:45:58;;;;;;;7.30;5.63;;;27.70;77.70;;;;;;5050573;28;20568;-55
2021/06/18 10:48:55;;;;;;;20.17;18.30;;;27.60;78.10;;;;;;5036546;28;20128;-50
2021/06/18 10:51:27;;;;;;;12.20;9.38;;;27.70;78.50;;;;;;5041734;28;20045;-53
2021/06/18 10:54:04;;;;;;;33.20;30.00;;;27.70;79.70;;;;;;5046787;28;20485;-53
2021/06/18 10:56:46;;;;;;;10.07;7.40;;;27.80;79.00;;;;;;5053449;28;20427;-55
2021/06/18 10:59:17;;;;;;;9.38;8.40;;;27.80;78.10;;;;;;5030493;28;20046;-53
2021/06/18 11:01:44;;;;;;;;;;;27.90;78.10;;;;;;5038564;28;20068;-55
2021/06/18 11:04:10;;;;;;;18.40;16.52;;;28.10;78.90;;;;;;5040103;28;19964;-53
2021/06/18 11:06:43;;;;;;;14.45;12.95;;;28.30;76.70;;;;;;5048193;28;20489;-53
2021/06/18 11:09:10;;;;;;;13.57;12.15;;;28.40;77.30;;;;;;5049641;28;20047;-55
2021/06/18 11:11:36;;;;;;;9.38;7.43;;;28.40;77.20;;;;;;5030906;28;20489;-54
2021/06/18 11:14:08;;;;;;;10.38;9.15;;;28.40;76.20;;;;;;5042622;28;20111;-53
2021/06/18 11:16:36;;;;;;;10.52;9.50;;;28.40;76.20;;;;;;5037743;28;20103;-56
2021/06/18 11:19:22;;;;;;;9.90;6.78;;;28.30;75.80;;;;;;5034296;28;20049;-54
2021/06/18 11:21:53;;;;;;;8.52;7.63;;;28.50;75.50;;;;;;5045782;28;20541;-56
2021/06/18 11:24:39;;;;;;;13.93;12.57;;;28.80;75.90;;;;;;5038230;28;20095;-53
2021/06/18 11:27:25;;;;;;;9.75;8.77;;;29.40;74.70;;;;;;5032187;28;20561;-55
2021/06/18 11:30:27;;;;;;;10.98;9.88;;;29.80;72.30;;;;;;5037308;28;20067;-55
2021/06/18 11:32:55;;;;;;;7.78;6.32;;;30.10;71.20;;;;;;5033133;28;21422;-57
2021/06/18 11:35:34;;;;;;;8.52;6.18;;;30.40;69.10;;;;;;5037892;28;20049;-54
2021/06/18 11:38:10;;;;;;;7.50;5.22;;;30.30;68.70;;;;;;5036875;28;20226;-57
2021/06/18 11:40:37;;;;;;;6.55;5.25;;;30.30;67.30;;;;;;5040812;28;20405;-57
2021/06/18 11:43:03;;;;;;;7.68;5.25;;;30.30;67.70;;;;;;5039304;28;20071;-57
2021/06/18 11:45:41;;;;;;;10.98;9.13;;;30.40;67.40;;;;;;5042662;28;20822;-56
2021/06/18 11:48:14;;;;;;;6.75;6.03;;;31.00;66.80;;;;;;5047605;28;20037;-55
2021/06/18 11:50:45;;;;;;;6.68;5.85;;;31.90;65.70;;;;;;5041834;28;20044;-56
2021/06/18 11:53:13;;;;;;;6.63;5.90;;;32.00;63.00;;;;;;5031298;28;20116;-56
2021/06/18 11:55:43;;;;;;;7.47;5.38;;;31.80;61.80;;;;;;5039381;28;20115;-56
2021/06/18 11:58:28;;;;;;;5.93;4.43;;;31.80;61.00;;;;;;5037027;28;20120;-55
2021/06/18 12:00:54;;;;;;;4.97;4.22;;;31.90;58.10;;;;;;5046502;28;20056;-56
2021/06/18 12:03:31;;;;;;;6.05;4.97;;;32.20;58.80;;;;;;5047404;28;20084;-55
2021/06/18 12:05:58;;;;;;;5.82;4.15;;;32.30;56.90;;;;;;5053859;28;20530;-57
2021/06/18 12:08:24;;;;;;;7.88;7.07;;;32.10;56.70;;;;;;5045721;28;20045;-56
2021/06/18 12:10:50;;;;;;;7.28;6.57;;;32.50;57.00;;;;;;5045819;28;20049;-57
2021/06/18 12:13:17;;;;;;;8.80;6.10;;;32.90;57.00;;;;;;5045760;28;20045;-52
2021/06/18 12:15:43;;;;;;;9.95;6.70;;;33.00;56.10;;;;;;5041192;28;20555;-55
2021/06/18 12:18:09;;;;;;;9.90;8.52;;;32.60;53.80;;;;;;5046808;28;20381;-57
2021/06/18 12:20:42;;;;;;;10.43;9.45;;;32.80;55.60;;;;;;5045865;28;20044;-55
2021/06/18 12:23:20;;;;;;;6.75;5.72;;;32.90;55.60;;;;;;5046490;28;20209;-56
2021/06/18 12:25:50;;;;;;;9.43;8.52;;;33.00;54.30;;;;;;5051169;28;20049;-57
2021/06/18 12:28:17;;;;;;;10.43;9.43;;;33.00;54.20;;;;;;5041364;28;20036;-57
2021/06/18 12:30:43;;;;;;;9.13;6.60;;;33.00;54.30;;;;;;5045792;28;20205;-57
2021/06/18 12:33:10;;;;;;;13.52;12.02;;;33.40;53.20;;;;;;5047226;28;20041;-56
2021/06/18 12:35:39;;;;;;;7.90;6.63;;;33.60;53.30;;;;;;5062761;28;20049;-53
2021/06/18 12:38:08;;;;;;;13.57;12.10;;;33.50;52.40;;;;;;5046963;28;20045;-56
2021/06/18 12:40:34;;;;;;;8.38;6.22;;;33.40;53.40;;;;;;5030390;28;20117;-52
2021/06/18 12:43:09;;;;;;;10.30;8.98;;;33.20;53.60;;;;;;5031822;28;20045;-54
2021/06/18 12:45:44;;;;;;;7.78;6.97;;;33.40;53.80;;;;;;5032287;28;20492;-54
2021/06/18 12:48:22;;;;;;;16.02;13.45;;;33.30;54.70;;;;;;5038397;28;20496;-55
2021/06/18 12:51:08;;;;;;;32.35;25.70;;;33.60;53.10;;;;;;5043119;28;20595;-56